createdAt,value
2022-12-04T00:03:39.304Z,97416.19
2022-12-04T00:08:43.021Z,97412.03
2022-12-04T00:13:46.334Z,97551.22
2022-12-04T00:18:49.495Z,97298.53
2022-12-04T00:23:52.720Z,97542.59
2022-12-04T00:28:57.077Z,97496.06
2022-12-04T00:34:01.914Z,97530.81
2022-12-04T00:39:06.144Z,97536.75
2022-12-04T00:44:09.280Z,97301.75
2022-12-04T00:49:13.092Z,97276.03
2022-12-04T00:54:15.780Z,97470.22
2022-12-04T00:59:18.505Z,97393.53
2022-12-04T01:04:21.796Z,97491.16
2022-12-04T01:09:33.871Z,97485.59
2022-12-04T01:14:36.904Z,97412.25
2022-12-04T01:19:39.819Z,97395.19
2022-12-04T01:24:42.726Z,97421.47
2022-12-04T01:29:45.714Z,97361.41
2022-12-04T01:34:48.656Z,97474.88
2022-12-04T01:39:51.334Z,97366.78
2022-12-04T01:45:35.071Z,97488.13
2022-12-04T01:50:38.375Z,97397.78
2022-12-04T01:55:42.592Z,97480.28
2022-12-04T02:00:49.742Z,97450.28
2022-12-04T02:05:55.379Z,97466.91
2022-12-04T02:11:11.235Z,97452.88
2022-12-04T02:16:22.950Z,97460.72
2022-12-04T02:21:37.572Z,97476.84
2022-12-04T02:27:02.851Z,97467.97
2022-12-04T02:32:23.872Z,97482.66
2022-12-04T02:37:44.776Z,97450.06
2022-12-04T02:43:09.736Z,97498.25
2022-12-04T02:48:16.891Z,97516.31
2022-12-04T02:53:24.716Z,97408.69
2022-12-04T02:58:54.168Z,97421.91
2022-12-04T03:04:06.463Z,97418.53
2022-12-04T03:09:20.984Z,97422.41
2022-12-04T03:14:28.700Z,97371.88
2022-12-04T03:19:39.569Z,97328.31
2022-12-04T03:24:56.431Z,97469.19
2022-12-04T03:30:12.041Z,97460.56
2022-12-04T03:35:26.893Z,97455.63
2022-12-04T03:40:45.273Z,97286.66
2022-12-04T03:45:47.994Z,97424.91
2022-12-04T03:51:01.018Z,97378.88
2022-12-04T03:56:16.849Z,97363.47
2022-12-04T04:01:24.296Z,97333.44
2022-12-04T04:06:35.527Z,97373.47
2022-12-04T04:11:50.481Z,97376.44
2022-12-04T04:17:19.093Z,97369.00
2022-12-04T04:22:43.536Z,97236.84
2022-12-04T04:27:54.599Z,97367.63
2022-12-04T04:33:05.076Z,97372.47
2022-12-04T04:38:13.541Z,97389.84
2022-12-04T04:43:40.760Z,97314.94
2022-12-04T04:48:55.353Z,97301.81
2022-12-04T04:54:01.626Z,97296.56
2022-12-04T04:59:04.705Z,97305.44
2022-12-04T05:04:17.302Z,97164.81
2022-12-04T05:09:20.238Z,97238.00
2022-12-04T05:14:23.329Z,97294.44
2022-12-04T05:19:44.713Z,97296.97
2022-12-04T05:24:50.195Z,97332.38
2022-12-04T05:29:55.199Z,97324.28
2022-12-04T05:34:59.127Z,97252.59
2022-12-04T05:40:02.047Z,97236.16
2022-12-04T05:45:05.347Z,97305.94
2022-12-04T05:50:09.682Z,97348.06
2022-12-04T05:55:12.666Z,97297.97
2022-12-04T06:00:16.485Z,97220.19
2022-12-04T06:05:19.287Z,97290.38
2022-12-04T06:10:32.432Z,97195.59
2022-12-04T06:15:41.574Z,97368.44
2022-12-04T06:20:45.435Z,97295.22
2022-12-04T06:25:48.317Z,97242.88
2022-12-04T06:30:51.021Z,97316.31
2022-12-04T06:36:05.620Z,97184.59
2022-12-04T06:41:10.962Z,97363.84
2022-12-04T06:46:16.687Z,97358.16
2022-12-04T06:51:27.869Z,97351.13
2022-12-04T06:56:33.123Z,97340.97
2022-12-04T07:01:36.278Z,97341.28
2022-12-04T07:06:40.773Z,97378.03
2022-12-04T07:11:44.711Z,97358.69
2022-12-04T07:16:48.626Z,97404.56
2022-12-04T07:21:51.370Z,97341.59
2022-12-04T07:27:04.912Z,97396.63
2022-12-04T07:32:08.068Z,97338.75
2022-12-04T07:37:10.796Z,97335.56
2022-12-04T07:42:13.549Z,97387.63
2022-12-04T07:47:16.316Z,97321.44
2022-12-04T07:52:19.291Z,97219.56
2022-12-04T07:57:22.131Z,97339.06
2022-12-04T08:02:24.832Z,97186.19
2022-12-04T08:07:27.654Z,97195.44
2022-12-04T08:12:33.947Z,97276.50
2022-12-04T08:17:37.472Z,97440.41
2022-12-04T08:22:40.182Z,97380.56
2022-12-04T08:27:47.849Z,97336.13
2022-12-04T08:33:00.601Z,97386.94
2022-12-04T08:38:03.412Z,97294.50
2022-12-04T08:43:06.171Z,97314.72
2022-12-04T08:48:09.297Z,97249.06
2022-12-04T08:53:12.003Z,97417.38
2022-12-04T08:58:14.849Z,97380.69
2022-12-04T09:03:21.022Z,97261.06
2022-12-04T09:08:25.454Z,97224.56
2022-12-04T09:13:28.130Z,97385.69
2022-12-04T09:18:30.984Z,97419.47
2022-12-04T09:23:35.293Z,97432.06
2022-12-04T09:28:38.494Z,97404.09
2022-12-04T09:33:41.233Z,97365.41
2022-12-04T09:38:46.733Z,97469.41
2022-12-04T09:44:20.524Z,97367.63
2022-12-04T09:49:48.705Z,97471.50
2022-12-04T09:54:54.274Z,97434.56
2022-12-04T09:59:57.348Z,97438.34
2022-12-04T10:05:00.457Z,97458.81
2022-12-04T10:10:14.177Z,97476.00
2022-12-04T10:15:58.500Z,97356.75
2022-12-04T10:21:26.773Z,97470.22
2022-12-04T10:26:40.071Z,97455.66
2022-12-04T10:31:46.058Z,97399.31
2022-12-04T10:36:53.633Z,97453.91
2022-12-04T10:42:27.489Z,97414.97
2022-12-04T10:47:30.364Z,97340.16
2022-12-04T10:52:33.239Z,97369.75
2022-12-04T10:57:44.222Z,97446.94
2022-12-04T11:02:47.212Z,97428.38
2022-12-04T11:07:52.024Z,97340.06
2022-12-04T11:13:03.776Z,97395.03
2022-12-04T11:18:28.266Z,97424.25
2022-12-04T11:23:35.651Z,97381.31
2022-12-04T11:28:54.828Z,97428.59
2022-12-04T11:34:04.055Z,97455.28
2022-12-04T11:39:37.106Z,97461.00
2022-12-04T11:44:41.348Z,97466.63
2022-12-04T11:49:44.125Z,97344.97
2022-12-04T11:55:00.565Z,97451.94
2022-12-04T12:00:10.579Z,97467.88
2022-12-04T12:05:37.757Z,97467.22
2022-12-04T12:10:49.005Z,97482.28
2022-12-04T12:16:32.860Z,97481.03
2022-12-04T12:21:47.508Z,97467.88
2022-12-04T12:27:24.239Z,97470.97
2022-12-04T12:32:35.895Z,97453.97
2022-12-04T12:38:10.058Z,97379.16
2022-12-04T12:43:32.326Z,97444.16
2022-12-04T12:48:38.158Z,97450.72
2022-12-04T12:53:48.765Z,97368.59
2022-12-04T12:58:58.107Z,97389.97
2022-12-04T13:04:11.193Z,97443.72
2022-12-04T13:09:19.094Z,97445.25
2022-12-04T13:14:22.021Z,97418.78
2022-12-04T13:19:34.195Z,97449.69
2022-12-04T13:25:06.983Z,97417.41
2022-12-04T13:30:18.797Z,97453.75
2022-12-04T13:35:35.772Z,97471.88
2022-12-04T13:40:48.982Z,97451.09
2022-12-04T13:45:53.876Z,97298.16
2022-12-04T13:51:07.447Z,97498.34
2022-12-04T13:56:29.785Z,97453.22
2022-12-04T14:01:41.220Z,97483.66
2022-12-04T14:06:44.585Z,97492.16
2022-12-04T14:11:51.770Z,97501.88
2022-12-04T14:16:56.693Z,97470.47
2022-12-04T14:21:59.775Z,97482.38
2022-12-04T14:27:24.115Z,97510.59
2022-12-04T14:32:31.659Z,97470.63
2022-12-04T14:37:41.836Z,97483.44
2022-12-04T14:42:55.911Z,97534.44
2022-12-04T14:48:18.221Z,97550.75
2022-12-04T14:53:33.509Z,97573.75
2022-12-04T14:58:42.339Z,97538.75
2022-12-04T15:03:48.562Z,97569.66
2022-12-04T15:09:22.010Z,97524.50
2022-12-04T15:14:25.795Z,97540.13
2022-12-04T15:19:39.507Z,97543.84
2022-12-04T15:24:42.226Z,97511.81
2022-12-04T15:29:49.182Z,97560.13
2022-12-04T15:35:07.109Z,97539.66
2022-12-04T15:40:19.460Z,97585.63
2022-12-04T15:45:27.613Z,97573.38
2022-12-04T15:50:32.071Z,97521.88
2022-12-04T15:55:47.757Z,97492.41
2022-12-04T16:01:02.868Z,97565.66
2022-12-04T16:06:27.539Z,97595.41
2022-12-04T16:11:37.231Z,97558.88
2022-12-04T16:16:43.040Z,97595.97
2022-12-04T16:21:46.113Z,97554.38
2022-12-04T16:26:55.592Z,97618.75
2022-12-04T16:32:02.982Z,97574.47
2022-12-04T16:37:15.254Z,97636.31
2022-12-04T16:42:23.217Z,97631.03
2022-12-04T16:47:29.170Z,97637.69
2022-12-04T16:52:32.088Z,97606.06
2022-12-04T16:57:34.768Z,97560.41
2022-12-04T17:02:37.512Z,97605.00
2022-12-04T17:07:40.294Z,97652.28
2022-12-04T17:12:44.104Z,97699.13
2022-12-04T17:17:46.961Z,97708.75
2022-12-04T17:22:50.501Z,97725.47
2022-12-04T17:27:53.368Z,97607.53
2022-12-04T17:32:56.533Z,97736.84
2022-12-04T17:38:05.609Z,97720.59
2022-12-04T17:43:09.074Z,97644.97
2022-12-04T17:48:11.752Z,97723.31
2022-12-04T17:53:22.561Z,97761.81
2022-12-04T17:58:25.237Z,97711.22
2022-12-04T18:03:28.157Z,97704.25
2022-12-04T18:08:31.799Z,97677.75
2022-12-04T18:13:35.024Z,97783.59
2022-12-04T18:18:40.029Z,97761.03
2022-12-04T18:23:46.293Z,97803.78
2022-12-04T18:28:49.759Z,97786.19
2022-12-04T18:33:52.643Z,97797.31
2022-12-04T18:39:02.307Z,97797.31
2022-12-04T18:44:05.073Z,97763.31
2022-12-04T18:49:10.271Z,97792.88
2022-12-04T18:54:20.926Z,97646.53
2022-12-04T18:59:26.449Z,97774.69
2022-12-04T19:04:32.914Z,97812.84
2022-12-04T19:10:09.595Z,97699.56
2022-12-04T19:14:58.425Z,97821.44
2022-12-04T19:20:01.180Z,97804.06
2022-12-04T19:25:05.101Z,97713.50
2022-12-04T19:30:08.768Z,97830.78
2022-12-04T19:35:12.181Z,97762.31
2022-12-04T19:40:15.186Z,97831.47
2022-12-04T19:45:17.954Z,97734.94
2022-12-04T19:50:21.871Z,97845.50
2022-12-04T19:55:24.772Z,97792.91
2022-12-04T20:00:27.836Z,97848.34
2022-12-04T20:05:30.635Z,97826.97
2022-12-04T20:10:36.707Z,97725.44
2022-12-04T20:15:41.352Z,97713.91
2022-12-04T20:20:59.021Z,97848.50
2022-12-04T20:26:06.481Z,97817.38
2022-12-04T20:31:14.207Z,97835.97
2022-12-04T20:36:19.743Z,97845.69
2022-12-04T20:41:23.104Z,97812.00
2022-12-04T20:46:33.767Z,97868.97
2022-12-04T20:51:43.123Z,97828.16
2022-12-04T20:56:47.357Z,97763.59
2022-12-04T21:02:01.089Z,97799.13
2022-12-04T21:07:03.852Z,97825.91
2022-12-04T21:12:26.865Z,97832.81
2022-12-04T21:17:29.572Z,97820.81
2022-12-04T21:22:42.598Z,97853.88
2022-12-04T21:27:45.317Z,97758.00
2022-12-04T21:32:51.325Z,97759.03
2022-12-04T21:37:54.153Z,97763.47
2022-12-04T21:42:56.804Z,97778.34
2022-12-04T21:48:04.036Z,97880.53
2022-12-04T21:53:06.720Z,97743.47
2022-12-04T21:58:25.605Z,97730.13
2022-12-04T22:03:28.337Z,97839.97
2022-12-04T22:08:31.823Z,97867.38
2022-12-04T22:13:54.502Z,97836.44
2022-12-04T22:18:58.725Z,97878.75
2022-12-04T22:24:11.975Z,97892.56
2022-12-04T22:29:48.646Z,97843.94
2022-12-04T22:34:38.156Z,97887.09
2022-12-04T22:39:41.341Z,97849.13
2022-12-04T22:44:44.274Z,97886.94
2022-12-04T22:49:48.321Z,97845.38
2022-12-04T22:54:52.906Z,97809.34
2022-12-04T22:59:56.967Z,97803.06
2022-12-04T23:05:01.074Z,97864.31
2022-12-04T23:10:05.767Z,97781.81
2022-12-04T23:15:09.831Z,97872.97
2022-12-04T23:20:13.559Z,97866.13
2022-12-04T23:25:17.177Z,97889.72
2022-12-04T23:30:27.473Z,97903.34
2022-12-04T23:35:33.346Z,97913.75
2022-12-04T23:40:36.983Z,97835.81
2022-12-04T23:45:40.569Z,97726.88
2022-12-04T23:50:45.547Z,97865.06
2022-12-04T23:56:08.707Z,97849.59
